Time;durP1;ratioP1;P1;durP2;ratioP2;P2;SDS_P1;SDS_P2;PMS_P1;PMS_P2;Temp;Humidity;BMP_temperature;BMP_pressure;BME280_temperature;BME280_humidity;BME280_pressure;Samples;Min_cycle;Max_cycle;Signal;HPM_P1;HPM_P2
2023/06/22 00:01:56;;;;;;;13.68;9.45;;;25.70;78.40;;;;;;5094140;28;20024;-72
2023/06/22 00:04:22;;;;;;;14.20;9.35;;;25.70;78.50;;;;;;5093523;28;20365;-72
2023/06/22 00:06:48;;;;;;;14.23;9.48;;;25.70;78.90;;;;;;5093698;28;20063;-72
2023/06/22 00:09:13;;;;;;;14.10;9.73;;;25.70;78.90;;;;;;5093731;28;20071;-72
2023/06/22 00:11:39;;;;;;;14.68;9.50;;;25.70;79.10;;;;;;5093728;28;20384;-72
2023/06/22 00:14:05;;;;;;;10.60;8.80;;;25.60;79.20;;;;;;5093671;28;20030;-72
2023/06/22 00:16:32;;;;;;;11.32;9.18;;;25.60;79.40;;;;;;5093490;28;20020;-72
2023/06/22 00:19:00;;;;;;;13.65;9.48;;;25.50;79.40;;;;;;5093675;28;20031;-72
2023/06/22 00:21:26;;;;;;;15.98;9.65;;;25.50;79.80;;;;;;5093649;28;20016;-72
2023/06/22 00:23:52;;;;;;;10.68;9.57;;;25.40;79.90;;;;;;5092542;28;20028;-71
2023/06/22 00:26:19;;;;;;;16.52;9.27;;;25.40;80.10;;;;;;5093609;28;20184;-72
2023/06/22 00:28:44;;;;;;;13.38;9.30;;;25.30;80.30;;;;;;5093550;28;20024;-72
2023/06/22 00:31:10;;;;;;;14.02;9.02;;;25.30;80.60;;;;;;5093152;28;20031;-72
2023/06/22 00:33:36;;;;;;;12.32;8.73;;;25.30;80.70;;;;;;5093512;28;20028;-71
2023/06/22 00:36:03;;;;;;;11.90;9.15;;;25.20;80.80;;;;;;5093093;28;20044;-72
2023/06/22 00:38:28;;;;;;;11.13;9.18;;;25.20;80.90;;;;;;5093469;28;20024;-71
2023/06/22 00:40:54;;;;;;;12.57;9.40;;;25.20;81.10;;;;;;5093325;28;20095;-72
2023/06/22 00:43:20;;;;;;;15.82;9.70;;;25.20;81.10;;;;;;5092263;28;20028;-71
2023/06/22 00:45:47;;;;;;;12.30;9.18;;;25.10;81.10;;;;;;5093039;28;20042;-72
2023/06/22 00:48:13;;;;;;;10.65;9.07;;;25.10;81.30;;;;;;5092897;28;20020;-72
2023/06/22 00:50:40;;;;;;;12.48;10.10;;;25.10;81.40;;;;;;5093074;28;20028;-72
2023/06/22 00:53:08;;;;;;;14.05;9.60;;;25.10;81.50;;;;;;5093225;28;20102;-72
2023/06/22 00:55:42;;;;;;;12.75;9.85;;;25.00;81.40;;;;;;5092938;28;20107;-72
2023/06/22 00:58:10;;;;;;;15.00;10.57;;;25.00;81.40;;;;;;5091703;28;20034;-71
2023/06/22 01:00:36;;;;;;;16.80;10.35;;;25.00;81.90;;;;;;5090306;28;20047;-72
2023/06/22 01:03:03;;;;;;;17.80;10.38;;;25.00;81.30;;;;;;5090289;28;20498;-72
2023/06/22 01:05:31;;;;;;;15.30;10.10;;;25.00;81.10;;;;;;5091791;28;20066;-72
2023/06/22 01:08:19;;;;;;;17.67;10.32;;;25.00;81.00;;;;;;5091748;28;20024;-72
2023/06/22 01:10:47;;;;;;;17.83;10.57;;;25.00;80.90;;;;;;5092074;28;20028;-71
2023/06/22 01:13:15;;;;;;;17.48;10.20;;;25.00;81.00;;;;;;5096630;28;20081;-72
2023/06/22 01:15:49;;;;;;;15.88;10.80;;;25.00;81.00;;;;;;5096919;28;20038;-72
2023/06/22 01:18:18;;;;;;;12.70;9.90;;;25.00;81.20;;;;;;5097211;28;20028;-71
2023/06/22 01:20:45;;;;;;;17.27;9.80;;;25.00;81.10;;;;;;5096993;28;20113;-72
2023/06/22 01:23:37;;;;;;;12.30;10.18;;;24.90;81.00;;;;;;5096743;28;20023;-72
2023/06/22 01:26:17;;;;;;;;;;;25.00;81.00;;;;;;5097334;28;20182;-72
2023/06/22 01:28:52;;;;;;;15.77;10.50;;;24.90;81.00;;;;;;5096611;28;19930;-71
2023/06/22 01:31:27;;;;;;;11.68;9.60;;;24.90;81.10;;;;;;5096859;28;20380;-72
2023/06/22 01:33:56;;;;;;;15.15;10.18;;;24.90;81.30;;;;;;5096813;28;20043;-71
2023/06/22 01:36:24;;;;;;;14.23;9.25;;;24.90;81.40;;;;;;5096295;28;20040;-71
2023/06/22 01:38:52;;;;;;;14.18;10.55;;;24.90;81.50;;;;;;5096530;28;20111;-72
2023/06/22 01:41:19;;;;;;;16.15;10.02;;;24.80;81.70;;;;;;5096651;28;20046;-72
2023/06/22 01:43:45;;;;;;;12.48;9.63;;;24.80;81.90;;;;;;5096451;28;20032;-72
2023/06/22 01:46:12;;;;;;;11.25;9.50;;;24.80;81.90;;;;;;5095168;28;20039;-72
2023/06/22 01:48:39;;;;;;;14.60;10.52;;;24.80;82.10;;;;;;5096536;28;20028;-72
2023/06/22 01:51:05;;;;;;;16.17;11.00;;;24.70;82.20;;;;;;5096608;28;20523;-72
2023/06/22 01:53:31;;;;;;;15.68;9.90;;;24.70;82.20;;;;;;5096420;28;20111;-72
2023/06/22 01:55:58;;;;;;;14.70;10.02;;;24.70;82.20;;;;;;5096393;28;20035;-71
2023/06/22 01:58:27;;;;;;;17.48;9.50;;;24.70;82.30;;;;;;5096288;28;20536;-72
2023/06/22 02:01:06;;;;;;;14.57;9.75;;;24.70;82.30;;;;;;5096224;28;20430;-72
2023/06/22 02:03:41;;;;;;;14.98;9.45;;;24.70;82.20;;;;;;5096377;28;20024;-72
2023/06/22 02:06:10;;;;;;;14.45;8.55;;;24.70;82.00;;;;;;5096055;28;20161;-72
2023/06/22 02:08:46;;;;;;;14.60;9.52;;;24.70;81.90;;;;;;5095867;28;20476;-71
2023/06/22 02:11:14;;;;;;;14.00;9.25;;;24.70;81.90;;;;;;5096019;28;20028;-72
2023/06/22 02:13:42;;;;;;;14.13;9.43;;;24.60;81.80;;;;;;5095992;28;20471;-71
2023/06/22 02:16:11;;;;;;;12.95;8.65;;;24.70;81.80;;;;;;5095838;28;20073;-71
2023/06/22 02:18:37;;;;;;;14.65;9.15;;;24.70;81.70;;;;;;5095788;28;20027;-72
2023/06/22 02:21:03;;;;;;;14.68;9.25;;;24.60;81.50;;;;;;5095964;28;20028;-72
2023/06/22 02:23:29;;;;;;;12.52;8.65;;;24.60;81.30;;;;;;5095588;28;20103;-72
2023/06/22 02:25:55;;;;;;;13.50;8.57;;;24.60;81.50;;;;;;5095770;28;20111;-71
2023/06/22 02:28:20;;;;;;;12.23;8.98;;;24.60;81.60;;;;;;5095573;28;20016;-72
2023/06/22 02:30:46;;;;;;;11.48;8.20;;;24.60;81.50;;;;;;5095442;28;20027;-72
2023/06/22 02:33:12;;;;;;;24.88;10.20;;;24.60;81.60;;;;;;5095765;28;20016;-71
2023/06/22 02:35:38;;;;;;;14.57;10.18;;;24.50;81.70;;;;;;5095104;28;20051;-71
2023/06/22 02:38:05;;;;;;;16.88;9.32;;;24.50;82.00;;;;;;5095732;28;20476;-71
2023/06/22 02:40:31;;;;;;;16.98;9.43;;;24.50;82.00;;;;;;5095686;28;20035;-71
2023/06/22 02:43:01;;;;;;;14.43;9.20;;;24.50;82.20;;;;;;5095258;28;20028;-71
2023/06/22 02:45:27;;;;;;;14.57;9.40;;;24.40;82.20;;;;;;5095370;28;20081;-72
2023/06/22 02:47:53;;;;;;;11.48;9.73;;;24.50;82.30;;;;;;5095371;28;20032;-72
2023/06/22 02:50:19;;;;;;;16.20;9.52;;;24.40;82.20;;;;;;5095262;28;20081;-71
2023/06/22 02:52:44;;;;;;;12.85;9.85;;;24.40;82.20;;;;;;5095207;28;20021;-71
2023/06/22 02:55:10;;;;;;;17.65;9.38;;;24.40;82.20;;;;;;5095460;28;20032;-71
2023/06/22 02:57:36;;;;;;;13.43;9.27;;;24.40;82.10;;;;;;5095105;28;20024;-71
2023/06/22 03:00:16;;;;;;;16.55;10.40;;;24.40;82.10;;;;;;5095303;28;20498;-72
2023/06/22 03:02:44;;;;;;;18.58;9.52;;;24.40;82.10;;;;;;5095436;28;20051;-71
2023/06/22 03:05:13;;;;;;;13.63;9.70;;;24.40;82.00;;;;;;5095020;28;20040;-71
2023/06/22 03:07:42;;;;;;;18.42;9.52;;;24.30;82.00;;;;;;5094952;28;20479;-72
2023/06/22 03:10:09;;;;;;;15.73;10.18;;;24.40;82.10;;;;;;5094958;28;20421;-71
2023/06/22 03:12:36;;;;;;;23.13;10.40;;;24.30;81.80;;;;;;5094849;28;20051;-71
2023/06/22 03:15:01;;;;;;;17.80;9.25;;;24.30;81.80;;;;;;5095118;28;20027;-72
2023/06/22 03:17:27;;;;;;;17.65;9.50;;;24.30;81.80;;;;;;5095538;28;20013;-71
2023/06/22 03:19:53;;;;;;;21.40;10.15;;;24.30;81.80;;;;;;5095274;28;20028;-72
2023/06/22 03:22:18;;;;;;;11.68;8.73;;;24.30;81.90;;;;;;5094831;28;20054;-72
2023/06/22 03:24:44;;;;;;;17.15;10.00;;;24.30;82.10;;;;;;5095019;28;20687;-71
2023/06/22 03:27:10;;;;;;;15.05;9.38;;;24.20;82.20;;;;;;5094913;28;20025;-72
2023/06/22 03:29:36;;;;;;;15.45;8.93;;;24.20;82.20;;;;;;5100373;28;20108;-72
2023/06/22 03:32:01;;;;;;;16.45;9.40;;;24.20;82.00;;;;;;5114774;28;20042;-71
2023/06/22 03:34:27;;;;;;;20.60;9.43;;;24.20;81.80;;;;;;5103135;28;20020;-72
2023/06/22 03:36:53;;;;;;;16.25;10.13;;;24.10;81.80;;;;;;5111816;28;20036;-72
2023/06/22 03:39:20;;;;;;;15.73;10.30;;;24.20;82.10;;;;;;5097820;28;20023;-72
2023/06/22 03:41:45;;;;;;;14.20;9.57;;;24.20;82.30;;;;;;5094060;28;20043;-72
2023/06/22 03:44:12;;;;;;;14.32;9.68;;;24.10;82.40;;;;;;5094175;28;20063;-72
2023/06/22 03:46:38;;;;;;;16.67;10.20;;;24.10;82.40;;;;;;5094203;28;20032;-72
2023/06/22 03:49:04;;;;;;;18.45;10.32;;;24.10;82.50;;;;;;5094181;28;20078;-72
2023/06/22 03:51:30;;;;;;;15.88;10.23;;;24.10;82.70;;;;;;5094276;28;20107;-72
2023/06/22 03:53:56;;;;;;;28.73;10.55;;;24.00;82.90;;;;;;5094296;28;20062;-71
2023/06/22 03:56:22;;;;;;;19.58;10.20;;;24.00;83.00;;;;;;5094085;28;20052;-71
2023/06/22 03:58:48;;;;;;;16.30;10.52;;;24.00;83.20;;;;;;5094320;28;20024;-72
2023/06/22 04:01:13;;;;;;;22.98;10.40;;;24.00;83.20;;;;;;5093908;28;20024;-72
2023/06/22 04:03:41;;;;;;;21.23;11.00;;;24.00;83.30;;;;;;5093948;28;20020;-72
2023/06/22 04:06:06;;;;;;;18.50;10.52;;;24.00;83.40;;;;;;5093687;28;20383;-72
2023/06/22 04:08:32;;;;;;;19.33;10.68;;;23.90;83.60;;;;;;5094108;28;20030;-71
2023/06/22 04:10:58;;;;;;;16.92;10.68;;;23.90;83.70;;;;;;5093666;28;20471;-72
2023/06/22 04:13:23;;;;;;;15.73;10.27;;;23.90;83.80;;;;;;5093601;28;20024;-72
2023/06/22 04:15:49;;;;;;;21.75;9.50;;;23.90;83.70;;;;;;5092516;28;20023;-71
2023/06/22 04:18:15;;;;;;;19.73;10.20;;;23.90;83.70;;;;;;5093990;28;20055;-72
2023/06/22 04:20:41;;;;;;;15.20;10.73;;;23.90;83.70;;;;;;5096420;28;20085;-72
2023/06/22 04:23:06;;;;;;;19.95;10.10;;;23.90;83.80;;;;;;5093784;28;20063;-71
2023/06/22 04:25:32;;;;;;;16.05;9.82;;;23.90;83.80;;;;;;5093544;28;20123;-72
2023/06/22 04:27:58;;;;;;;23.70;11.02;;;24.00;83.90;;;;;;5093650;28;20028;-71
2023/06/22 04:30:24;;;;;;;16.98;10.50;;;24.00;84.00;;;;;;5093356;28;20073;-72
2023/06/22 04:32:59;;;;;;;18.95;10.63;;;24.00;84.20;;;;;;5093090;28;20066;-72
2023/06/22 04:35:25;;;;;;;19.05;9.75;;;24.00;84.40;;;;;;5091859;28;20123;-72
2023/06/22 04:37:54;;;;;;;24.38;10.02;;;24.00;84.40;;;;;;5095199;28;20083;-71
2023/06/22 04:40:24;;;;;;;16.85;9.55;;;24.00;84.60;;;;;;5093740;28;20020;-72
2023/06/22 04:42:53;;;;;;;15.45;9.90;;;24.10;84.80;;;;;;5093504;28;20046;-71
2023/06/22 04:45:20;;;;;;;18.25;9.65;;;24.00;84.70;;;;;;5109384;28;20356;-72
2023/06/22 04:47:46;;;;;;;15.00;9.95;;;24.00;84.70;;;;;;5113353;28;20028;-72
2023/06/22 04:50:12;;;;;;;13.90;10.40;;;24.00;84.50;;;;;;5113386;28;20356;-72
2023/06/22 04:52:38;;;;;;;20.48;10.52;;;24.00;84.50;;;;;;5113204;28;20488;-72
2023/06/22 04:55:05;;;;;;;16.63;11.35;;;24.00;84.50;;;;;;5112772;28;20023;-72
2023/06/22 04:57:32;;;;;;;21.05;10.90;;;24.10;84.80;;;;;;5111612;28;20039;-72
2023/06/22 05:00:11;;;;;;;19.02;11.55;;;24.10;84.80;;;;;;5112838;28;20038;-72
2023/06/22 05:02:37;;;;;;;21.10;11.85;;;24.10;84.80;;;;;;5113497;28;20102;-72
2023/06/22 05:05:06;;;;;;;26.48;11.20;;;24.10;84.90;;;;;;5113217;28;20028;-72
2023/06/22 05:07:33;;;;;;;14.52;10.70;;;24.10;84.90;;;;;;5113321;28;20035;-72
2023/06/22 05:10:00;;;;;;;14.65;10.45;;;24.10;84.90;;;;;;5101402;28;20074;-72
2023/06/22 05:12:25;;;;;;;22.48;10.57;;;24.20;84.80;;;;;;5092872;28;20039;-72
2023/06/22 05:14:51;;;;;;;23.13;10.00;;;24.20;84.50;;;;;;5092939;28;20020;-72
2023/06/22 05:17:18;;;;;;;20.02;9.75;;;24.20;84.30;;;;;;5092843;28;20455;-72
2023/06/22 05:19:48;;;;;;;22.65;9.63;;;24.20;84.30;;;;;;5093001;28;20115;-72
2023/06/22 05:22:15;;;;;;;19.77;10.80;;;24.20;84.10;;;;;;5092657;28;20086;-72
2023/06/22 05:24:42;;;;;;;22.02;10.80;;;24.30;84.40;;;;;;5091513;28;20095;-72
2023/06/22 05:27:09;;;;;;;20.35;9.68;;;24.30;84.30;;;;;;5092208;28;20039;-72
2023/06/22 05:29:35;;;;;;;17.95;10.05;;;24.30;84.20;;;;;;5092646;28;20560;-73
2023/06/22 05:32:01;;;;;;;15.70;10.02;;;24.30;84.10;;;;;;5092393;28;20024;-72
2023/06/22 05:34:27;;;;;;;14.65;9.60;;;24.30;84.20;;;;;;5091113;28;20044;-71
2023/06/22 05:36:52;;;;;;;15.15;9.45;;;24.40;84.00;;;;;;5092405;28;20075;-71
2023/06/22 05:39:18;;;;;;;19.58;10.43;;;24.40;83.80;;;;;;5092678;28;20028;-71
2023/06/22 05:41:45;;;;;;;22.85;10.35;;;24.40;83.90;;;;;;5092457;28;20028;-72
2023/06/22 05:44:11;;;;;;;15.68;9.68;;;24.40;84.20;;;;;;5092573;28;20020;-71
2023/06/22 05:46:40;;;;;;;18.58;10.13;;;24.40;84.10;;;;;;5092721;28;20088;-71
2023/06/22 05:49:06;;;;;;;16.10;10.23;;;24.50;84.30;;;;;;5092718;28;20028;-72
2023/06/22 05:51:31;;;;;;;17.58;10.02;;;24.50;84.50;;;;;;5093202;28;20034;-71
2023/06/22 05:53:57;;;;;;;20.40;10.00;;;24.50;84.50;;;;;;5093037;28;20020;-71
2023/06/22 05:56:23;;;;;;;20.77;11.52;;;24.60;84.70;;;;;;5092537;28;20020;-71
2023/06/22 05:58:49;;;;;;;17.92;10.07;;;24.60;84.60;;;;;;5095735;28;20039;-71
2023/06/22 06:01:15;;;;;;;22.10;10.45;;;24.70;84.50;;;;;;5095100;28;20502;-71
2023/06/22 06:03:41;;;;;;;20.40;9.88;;;24.70;84.60;;;;;;5094386;28;20081;-71
2023/06/22 06:06:07;;;;;;;18.25;9.68;;;24.70;84.60;;;;;;5095670;28;20024;-71
2023/06/22 06:08:33;;;;;;;21.85;9.68;;;24.80;84.40;;;;;;5095946;28;20054;-71
2023/06/22 06:10:59;;;;;;;16.20;9.43;;;24.90;84.30;;;;;;5096476;28;20016;-71
2023/06/22 06:13:25;;;;;;;12.75;9.00;;;24.90;84.30;;;;;;5096404;28;20043;-71
2023/06/22 06:15:51;;;;;;;15.35;9.15;;;24.90;84.30;;;;;;5095918;28;20393;-71
2023/06/22 06:18:17;;;;;;;16.15;8.68;;;25.00;84.20;;;;;;5095842;28;20029;-71
2023/06/22 06:20:43;;;;;;;16.27;9.77;;;25.00;83.90;;;;;;5095677;28;20383;-71
2023/06/22 06:23:08;;;;;;;16.00;9.15;;;25.10;83.90;;;;;;5095721;28;20035;-71
2023/06/22 06:25:34;;;;;;;14.48;8.55;;;25.10;83.80;;;;;;5094219;28;20032;-71
2023/06/22 06:28:00;;;;;;;15.98;9.48;;;25.10;83.50;;;;;;5095805;28;20027;-71
2023/06/22 06:30:26;;;;;;;13.98;8.20;;;25.20;83.30;;;;;;5095813;28;20020;-71
2023/06/22 06:32:51;;;;;;;14.02;9.57;;;25.20;83.30;;;;;;5095814;28;20478;-71
2023/06/22 06:35:17;;;;;;;20.08;9.30;;;25.20;83.40;;;;;;5095371;28;20115;-71
2023/06/22 06:37:46;;;;;;;19.05;9.98;;;25.30;83.10;;;;;;5095536;28;20380;-71
2023/06/22 06:40:13;;;;;;;20.52;9.02;;;25.30;83.00;;;;;;5095279;28;20028;-72
2023/06/22 06:42:45;;;;;;;22.42;9.60;;;25.40;82.70;;;;;;5094391;28;20028;-71
2023/06/22 06:45:22;;;;;;;13.95;8.80;;;25.40;82.50;;;;;;5095381;28;20102;-71
2023/06/22 06:47:49;;;;;;;16.30;8.80;;;25.40;82.00;;;;;;5095401;28;20028;-71
2023/06/22 06:50:16;;;;;;;15.38;8.95;;;25.50;82.00;;;;;;5095414;28;20483;-71
2023/06/22 06:52:42;;;;;;;25.45;8.80;;;25.50;82.10;;;;;;5095450;28;20038;-71
2023/06/22 06:55:12;;;;;;;16.55;9.18;;;25.60;82.00;;;;;;5095333;28;20020;-71
2023/06/22 06:57:41;;;;;;;18.23;8.52;;;25.60;81.90;;;;;;5095453;28;20034;-71
2023/06/22 07:00:11;;;;;;;18.17;8.90;;;25.70;82.00;;;;;;5095132;28;20028;-71
2023/06/22 07:02:39;;;;;;;15.20;8.10;;;25.70;81.60;;;;;;5095240;28;20035;-71
2023/06/22 07:05:06;;;;;;;18.05;8.48;;;25.70;81.60;;;;;;5094965;28;20077;-71
2023/06/22 07:07:32;;;;;;;18.02;8.75;;;25.80;81.50;;;;;;5095219;28;20032;-71
2023/06/22 07:09:58;;;;;;;25.58;8.40;;;25.80;81.00;;;;;;5094009;28;20539;-71
2023/06/22 07:12:24;;;;;;;15.45;8.40;;;25.80;80.60;;;;;;5095079;28;20059;-71
2023/06/22 07:14:50;;;;;;;15.70;8.40;;;25.90;80.20;;;;;;5094831;28;20048;-71
2023/06/22 07:17:16;;;;;;;16.88;7.90;;;26.00;80.10;;;;;;5094893;28;20019;-71
2023/06/22 07:19:42;;;;;;;17.50;9.05;;;26.00;80.70;;;;;;5094841;28;20384;-71
2023/06/22 07:22:08;;;;;;;14.25;8.45;;;26.00;80.70;;;;;;5094865;28;20020;-71
2023/06/22 07:24:34;;;;;;;17.88;8.07;;;26.00;80.50;;;;;;5094592;28;20020;-71
2023/06/22 07:26:59;;;;;;;18.33;7.78;;;26.10;80.00;;;;;;5093599;28;20032;-71
2023/06/22 07:29:26;;;;;;;24.83;8.68;;;26.20;79.40;;;;;;5094758;28;20024;-71
2023/06/22 07:31:53;;;;;;;21.83;9.30;;;26.20;79.20;;;;;;5094469;28;20506;-71
2023/06/22 07:34:19;;;;;;;15.82;8.35;;;26.20;79.30;;;;;;5094521;28;20472;-72
2023/06/22 07:36:46;;;;;;;13.73;8.30;;;26.30;79.30;;;;;;5066184;22;20064;-71
2023/06/22 07:39:12;;;;;;;15.63;8.13;;;26.30;79.00;;;;;;5054101;28;20476;-71
2023/06/22 07:41:40;;;;;;;17.00;8.05;;;26.30;79.10;;;;;;5054205;28;20029;-71
2023/06/22 07:44:07;;;;;;;18.55;8.57;;;26.40;78.50;;;;;;5053968;28;20021;-71
2023/06/22 07:46:33;;;;;;;19.05;8.48;;;26.40;78.40;;;;;;5053974;28;20041;-71
2023/06/22 07:48:59;;;;;;;13.05;8.32;;;26.50;78.70;;;;;;5054023;28;20017;-71
2023/06/22 07:51:25;;;;;;;19.55;8.05;;;26.50;78.70;;;;;;5054117;28;20452;-71
2023/06/22 07:53:51;;;;;;;20.30;8.25;;;26.60;78.50;;;;;;5053791;28;20048;-71
2023/06/22 07:56:20;;;;;;;15.57;8.05;;;26.60;78.30;;;;;;5053791;28;20032;-71
2023/06/22 07:58:46;;;;;;;14.45;8.13;;;26.60;77.90;;;;;;5053908;28;20067;-71
2023/06/22 08:01:12;;;;;;;21.98;8.75;;;26.70;78.00;;;;;;5053722;28;20028;-71
2023/06/22 08:03:39;;;;;;;19.42;8.65;;;26.70;78.10;;;;;;5053488;28;20051;-71
2023/06/22 08:06:08;;;;;;;16.40;9.18;;;26.80;78.00;;;;;;5053441;28;20060;-71
2023/06/22 08:08:34;;;;;;;19.02;8.93;;;26.90;78.20;;;;;;5053284;28;20108;-72
2023/06/22 08:11:00;;;;;;;16.63;9.20;;;26.90;78.60;;;;;;5053398;28;20056;-71
2023/06/22 08:13:26;;;;;;;17.33;10.18;;;26.90;78.70;;;;;;5053337;28;20056;-71
2023/06/22 08:15:51;;;;;;;16.10;9.52;;;27.00;78.90;;;;;;5053306;28;20029;-71
2023/06/22 08:18:17;;;;;;;18.33;9.52;;;27.00;79.10;;;;;;5053590;28;20096;-71
2023/06/22 08:20:43;;;;;;;17.33;9.73;;;27.10;79.60;;;;;;5053263;28;20086;-71
2023/06/22 08:23:08;;;;;;;16.52;9.70;;;27.10;79.20;;;;;;5053372;28;20021;-71
2023/06/22 08:25:35;;;;;;;17.92;10.63;;;27.10;79.50;;;;;;5053133;28;20554;-72
2023/06/22 08:28:02;;;;;;;16.85;10.30;;;27.20;79.50;;;;;;5053370;28;20024;-71
2023/06/22 08:30:28;;;;;;;17.42;10.82;;;27.30;79.40;;;;;;5053453;28;20043;-71
2023/06/22 08:32:55;;;;;;;16.80;10.20;;;27.30;79.20;;;;;;5053456;28;20427;-71
2023/06/22 08:35:24;;;;;;;12.65;10.00;;;27.30;79.00;;;;;;5052970;28;20049;-72
2023/06/22 08:37:52;;;;;;;26.10;12.43;;;27.40;79.20;;;;;;5053145;28;20082;-71
2023/06/22 08:40:19;;;;;;;18.70;10.30;;;27.40;79.60;;;;;;5052879;28;20025;-71
2023/06/22 08:42:46;;;;;;;19.92;11.27;;;27.50;79.40;;;;;;5051910;28;20492;-71
2023/06/22 08:45:12;;;;;;;18.17;10.05;;;27.50;79.70;;;;;;5052909;28;20083;-71
2023/06/22 08:47:39;;;;;;;17.23;10.98;;;27.60;80.00;;;;;;5053010;28;20025;-71
2023/06/22 08:50:06;;;;;;;19.17;10.93;;;27.70;79.90;;;;;;5053147;28;20423;-71
2023/06/22 08:52:32;;;;;;;24.85;11.05;;;27.70;79.90;;;;;;5053343;28;20017;-71
2023/06/22 08:54:58;;;;;;;16.17;11.40;;;27.70;80.20;;;;;;5052986;28;20040;-71
2023/06/22 08:57:24;;;;;;;20.10;11.10;;;27.80;80.40;;;;;;5052897;28;20028;-71
2023/06/22 08:59:52;;;;;;;15.05;11.32;;;27.80;80.20;;;;;;5053043;28;20215;-71
2023/06/22 09:02:17;;;;;;;15.55;11.70;;;27.90;80.50;;;;;;5052767;28;20017;-71
2023/06/22 09:04:44;;;;;;;17.77;12.25;;;27.90;80.80;;;;;;5052987;28;20029;-71
2023/06/22 09:07:09;;;;;;;21.83;11.88;;;28.00;80.70;;;;;;5052818;28;20047;-71
2023/06/22 09:09:35;;;;;;;18.38;12.30;;;28.10;80.70;;;;;;5052985;28;20025;-71
2023/06/22 09:12:01;;;;;;;13.75;12.05;;;28.10;81.30;;;;;;5052632;28;20032;-71
2023/06/22 09:14:27;;;;;;;14.95;12.10;;;28.20;81.70;;;;;;5052893;28;20025;-71
2023/06/22 09:16:53;;;;;;;18.85;12.73;;;28.20;81.70;;;;;;5052582;28;20025;-72
2023/06/22 09:19:19;;;;;;;16.00;11.88;;;28.30;81.50;;;;;;5052622;28;20031;-72
2023/06/22 09:21:45;;;;;;;19.33;13.45;;;28.40;81.30;;;;;;5052738;28;20167;-72
2023/06/22 09:24:14;;;;;;;20.65;12.45;;;28.40;81.80;;;;;;5052700;28;20504;-71
2023/06/22 09:26:40;;;;;;;22.38;13.25;;;28.40;81.40;;;;;;5053002;28;20042;-72
2023/06/22 09:29:06;;;;;;;21.83;12.38;;;28.50;81.10;;;;;;5052855;28;20025;-71
2023/06/22 09:31:32;;;;;;;15.93;11.38;;;28.50;80.70;;;;;;5052902;28;20025;-72
2023/06/22 09:33:58;;;;;;;15.07;12.05;;;28.60;81.20;;;;;;5056499;28;20461;-72
2023/06/22 09:36:24;;;;;;;22.50;12.80;;;28.60;81.40;;;;;;5057169;28;20059;-71
2023/06/22 09:38:58;;;;;;;15.25;11.55;;;28.70;80.90;;;;;;5055860;28;20029;-72
2023/06/22 09:41:24;;;;;;;18.92;12.45;;;28.70;80.70;;;;;;5059266;28;20021;-73
2023/06/22 09:43:50;;;;;;;20.83;12.40;;;28.80;80.50;;;;;;5058929;28;20560;-70
2023/06/22 09:46:16;;;;;;;16.48;12.35;;;28.80;80.10;;;;;;5059297;28;20060;-71
2023/06/22 09:48:43;;;;;;;20.27;13.18;;;28.80;80.10;;;;;;5060464;28;20025;-72
2023/06/22 09:51:09;;;;;;;19.70;12.52;;;28.90;80.40;;;;;;5057604;28;20416;-73
2023/06/22 09:53:35;;;;;;;20.08;12.65;;;28.90;80.50;;;;;;5057568;28;20392;-72
2023/06/22 09:56:01;;;;;;;25.13;13.70;;;29.00;81.00;;;;;;5057267;28;20021;-72
2023/06/22 09:58:28;;;;;;;25.77;12.50;;;29.00;80.40;;;;;;5057176;28;20070;-72
2023/06/22 10:00:54;;;;;;;22.02;11.23;;;29.00;80.60;;;;;;5057226;28;20488;-73
2023/06/22 10:03:23;;;;;;;17.48;12.45;;;29.10;80.80;;;;;;5056541;28;20029;-72
2023/06/22 10:05:49;;;;;;;16.45;11.85;;;29.10;80.70;;;;;;5056101;28;20029;-72
2023/06/22 10:08:15;;;;;;;16.80;12.23;;;29.20;80.50;;;;;;5056289;28;20155;-72
2023/06/22 10:10:41;;;;;;;14.38;11.45;;;29.20;80.80;;;;;;5056121;28;20024;-72
2023/06/22 10:13:10;;;;;;;21.08;12.07;;;29.30;80.70;;;;;;5056001;28;20029;-72
2023/06/22 10:15:37;;;;;;;16.67;12.23;;;29.30;80.20;;;;;;5056321;28;20025;-73
2023/06/22 10:18:03;;;;;;;22.30;12.52;;;29.40;79.90;;;;;;5056169;28;20068;-72
2023/06/22 10:20:29;;;;;;;26.33;11.65;;;29.40;80.00;;;;;;5056064;28;20025;-71
2023/06/22 10:22:55;;;;;;;22.42;12.40;;;29.50;80.40;;;;;;5054220;28;20029;-71
2023/06/22 10:25:22;;;;;;;23.15;12.88;;;29.50;80.10;;;;;;5055457;28;20037;-71
2023/06/22 10:27:48;;;;;;;16.92;12.90;;;29.60;79.60;;;;;;5053981;28;20037;-70
2023/06/22 10:30:17;;;;;;;20.23;12.15;;;29.60;79.10;;;;;;5055670;28;20025;-72
2023/06/22 10:32:44;;;;;;;19.75;13.50;;;29.70;79.50;;;;;;5056248;28;20083;-72
2023/06/22 10:35:15;;;;;;;18.13;11.93;;;29.70;79.40;;;;;;5055334;28;20057;-71
2023/06/22 10:37:45;;;;;;;17.33;12.55;;;29.80;79.10;;;;;;5055439;28;20024;-71
2023/06/22 10:40:15;;;;;;;21.58;12.40;;;29.80;79.10;;;;;;5055406;28;20473;-72
2023/06/22 10:42:41;;;;;;;32.80;12.55;;;29.80;79.30;;;;;;5055175;28;20036;-73
2023/06/22 10:45:09;;;;;;;17.23;12.55;;;29.90;78.90;;;;;;5055206;28;20025;-72
2023/06/22 10:47:35;;;;;;;17.15;12.60;;;29.90;78.80;;;;;;5055217;28;20025;-72
2023/06/22 10:50:01;;;;;;;24.42;12.38;;;29.90;78.90;;;;;;5053677;28;20025;-72
2023/06/22 10:52:30;;;;;;;20.98;13.15;;;30.00;79.20;;;;;;5053602;28;20357;-71
2023/06/22 10:54:56;;;;;;;18.50;11.93;;;30.00;79.40;;;;;;5053646;28;20384;-71
2023/06/22 10:57:22;;;;;;;18.55;12.35;;;30.10;79.30;;;;;;5055031;28;20017;-72
2023/06/22 10:59:48;;;;;;;19.45;12.40;;;30.10;78.80;;;;;;5054898;28;20032;-72
2023/06/22 11:02:18;;;;;;;19.17;12.13;;;30.20;77.90;;;;;;5055041;28;20032;-71
2023/06/22 11:04:44;;;;;;;20.67;12.93;;;30.30;78.10;;;;;;5053239;28;20362;-71
2023/06/22 11:07:10;;;;;;;18.33;12.32;;;30.30;78.10;;;;;;5053766;28;20481;-72
2023/06/22 11:09:39;;;;;;;18.55;12.20;;;30.30;77.90;;;;;;5054141;28;20047;-72
2023/06/22 11:12:06;;;;;;;19.08;11.32;;;30.40;77.70;;;;;;5054463;28;20109;-71
2023/06/22 11:14:33;;;;;;;15.80;11.95;;;30.40;77.60;;;;;;5054208;28;20025;-72
2023/06/22 11:16:59;;;;;;;18.25;11.85;;;30.40;77.50;;;;;;5054228;28;20017;-72
2023/06/22 11:19:25;;;;;;;18.83;12.75;;;30.50;77.50;;;;;;5054129;28;20104;-71
2023/06/22 11:21:51;;;;;;;20.80;12.38;;;30.40;77.00;;;;;;5054171;28;20120;-70
2023/06/22 11:24:18;;;;;;;24.42;11.75;;;30.40;76.70;;;;;;5054565;28;20028;-71
2023/06/22 11:26:44;;;;;;;15.25;11.40;;;30.40;76.50;;;;;;5052941;28;20098;-72
2023/06/22 11:29:10;;;;;;;22.92;12.10;;;30.50;77.70;;;;;;5054137;28;20537;-72
2023/06/22 11:31:36;;;;;;;21.92;11.75;;;30.50;77.80;;;;;;5054180;28;20037;-71
2023/06/22 11:34:03;;;;;;;25.98;11.85;;;30.50;77.70;;;;;;5052801;28;20069;-71
2023/06/22 11:36:32;;;;;;;23.20;11.73;;;30.50;77.30;;;;;;5054635;28;20501;-71
2023/06/22 11:38:58;;;;;;;22.05;12.45;;;30.50;77.10;;;;;;5054146;28;20590;-72
2023/06/22 11:41:26;;;;;;;20.55;11.63;;;30.50;76.20;;;;;;5054091;28;20029;-72
2023/06/22 11:43:53;;;;;;;20.60;11.38;;;30.40;75.60;;;;;;5053793;28;20436;-72
2023/06/22 11:46:18;;;;;;;18.50;12.40;;;30.40;76.00;;;;;;5053166;28;20040;-72
2023/06/22 11:48:45;;;;;;;19.75;11.90;;;30.40;76.20;;;;;;5052500;28;20518;-72
2023/06/22 11:51:11;;;;;;;24.63;12.20;;;30.30;76.30;;;;;;5052226;28;20435;-71
2023/06/22 11:53:37;;;;;;;19.92;11.57;;;30.30;76.30;;;;;;5050779;28;20021;-72
2023/06/22 11:56:03;;;;;;;21.08;11.65;;;30.20;76.20;;;;;;5050322;28;20112;-71
2023/06/22 11:58:28;;;;;;;17.55;11.77;;;30.20;76.30;;;;;;5051117;28;20556;-73
2023/06/22 12:00:54;;;;;;;25.27;11.70;;;30.20;76.40;;;;;;5052259;28;20028;-71
2023/06/22 12:03:24;;;;;;;24.48;11.35;;;30.20;76.00;;;;;;5053567;28;20017;-73
2023/06/22 12:05:53;;;;;;;18.02;11.68;;;30.20;75.60;;;;;;5052568;28;20107;-73
2023/06/22 12:08:19;;;;;;;34.05;13.50;;;30.10;75.90;;;;;;5053718;28;20403;-74
2023/06/22 12:10:45;;;;;;;17.58;12.18;;;30.10;76.10;;;;;;5053457;28;20035;-73
2023/06/22 12:13:11;;;;;;;22.00;11.88;;;30.20;76.10;;;;;;5052528;28;20037;-72
2023/06/22 12:15:37;;;;;;;25.35;12.63;;;30.20;76.00;;;;;;5052885;28;20025;-75
2023/06/22 12:18:03;;;;;;;27.05;12.38;;;30.20;76.30;;;;;;5053018;28;20024;-73
2023/06/22 12:20:28;;;;;;;21.90;11.60;;;30.30;76.60;;;;;;5053318;28;20366;-72
2023/06/22 12:22:58;;;;;;;21.92;11.98;;;30.30;76.90;;;;;;5053039;28;20101;-70
2023/06/22 12:25:23;;;;;;;21.23;11.85;;;30.30;76.80;;;;;;5053121;28;20027;-72
2023/06/22 12:27:49;;;;;;;31.70;12.85;;;30.30;76.20;;;;;;5053345;28;20033;-74
2023/06/22 12:30:18;;;;;;;20.40;11.30;;;30.40;75.60;;;;;;5053280;28;20025;-72